createdAt,value
2022-08-03T00:02:21.564Z,20.70
2022-08-03T00:04:50.026Z,20.72
2022-08-03T00:07:18.483Z,20.72
2022-08-03T00:09:46.861Z,20.73
2022-08-03T00:12:15.496Z,20.72
2022-08-03T00:14:44.123Z,20.73
2022-08-03T00:17:12.598Z,20.74
2022-08-03T00:19:42.340Z,20.72
2022-08-03T00:22:10.803Z,20.69
2022-08-03T00:24:39.216Z,20.64
2022-08-03T00:27:07.703Z,20.59
2022-08-03T00:29:59.384Z,20.57
2022-08-03T00:32:24.907Z,20.51
2022-08-03T00:34:57.590Z,20.47
2022-08-03T00:37:41.507Z,20.42
2022-08-03T00:40:13.109Z,20.35
2022-08-03T00:42:53.577Z,20.33
2022-08-03T00:45:24.178Z,20.30
2022-08-03T00:47:52.836Z,20.30
2022-08-03T00:50:24.850Z,20.31
2022-08-03T00:52:54.943Z,20.33
2022-08-03T00:55:24.108Z,20.35
2022-08-03T00:57:53.409Z,20.35
2022-08-03T01:00:24.366Z,20.36
2022-08-03T01:02:54.039Z,20.35
2022-08-03T01:05:24.208Z,20.33
2022-08-03T01:08:04.344Z,20.32
2022-08-03T01:10:41.828Z,20.31
2022-08-03T01:14:03.699Z,20.30
2022-08-03T01:16:16.595Z,20.31
2022-08-03T01:18:48.114Z,20.32
2022-08-03T01:21:25.993Z,20.31
2022-08-03T01:24:07.953Z,20.29
2022-08-03T01:27:04.080Z,20.29
2022-08-03T01:30:12.426Z,20.24
2022-08-03T01:33:00.295Z,20.24
2022-08-03T01:35:38.681Z,20.21
2022-08-03T01:38:11.936Z,20.21
2022-08-03T01:40:42.473Z,20.22
2022-08-03T01:43:14.454Z,20.20
2022-08-03T01:46:05.383Z,20.22
2022-08-03T01:48:37.448Z,20.23
2022-08-03T01:51:07.219Z,20.24
2022-08-03T01:53:37.993Z,20.27
2022-08-03T01:56:07.815Z,20.29
2022-08-03T01:58:37.472Z,20.31
2022-08-03T02:01:07.411Z,20.33
2022-08-03T02:03:59.676Z,20.33
2022-08-03T02:06:59.884Z,20.35
2022-08-03T02:09:22.051Z,20.38
2022-08-03T02:11:52.305Z,20.39
2022-08-03T02:14:21.391Z,20.42
2022-08-03T02:16:51.740Z,20.44
2022-08-03T02:19:22.825Z,20.46
2022-08-03T02:21:56.893Z,20.49
2022-08-03T02:24:30.536Z,20.52
2022-08-03T02:27:01.361Z,20.54
2022-08-03T02:29:40.379Z,20.57
2022-08-03T02:32:13.584Z,20.58
2022-08-03T02:34:47.343Z,20.61
2022-08-03T02:37:19.208Z,20.63
2022-08-03T02:39:49.211Z,20.64
2022-08-03T02:42:22.591Z,20.64
2022-08-03T02:44:54.448Z,20.66
2022-08-03T02:47:23.625Z,20.68
2022-08-03T02:49:55.517Z,20.66
2022-08-03T02:52:27.940Z,20.70
2022-08-03T02:55:00.188Z,20.69
2022-08-03T02:57:30.954Z,20.72
2022-08-03T03:00:01.078Z,20.74
2022-08-03T03:02:31.060Z,20.76
2022-08-03T03:05:54.339Z,20.76
2022-08-03T03:07:53.035Z,20.80
2022-08-03T03:10:23.415Z,20.81
2022-08-03T03:12:53.511Z,20.83
2022-08-03T03:15:22.350Z,20.80
2022-08-03T03:17:52.291Z,20.76
2022-08-03T03:20:29.113Z,20.74
2022-08-03T03:23:01.171Z,20.74
2022-08-03T03:25:31.697Z,20.73
2022-08-03T03:28:01.130Z,20.69
2022-08-03T03:30:31.456Z,20.66
2022-08-03T03:33:00.672Z,20.62
2022-08-03T03:35:30.732Z,20.57
2022-08-03T03:38:07.851Z,20.56
2022-08-03T03:40:36.426Z,20.53
2022-08-03T03:43:08.308Z,20.51
2022-08-03T03:45:37.082Z,20.49
2022-08-03T03:48:07.668Z,20.46
2022-08-03T03:50:40.884Z,20.44
2022-08-03T03:53:11.180Z,20.41
2022-08-03T03:56:01.636Z,20.39
2022-08-03T03:58:28.597Z,20.36
2022-08-03T04:00:57.220Z,20.35
2022-08-03T04:03:25.736Z,20.29
2022-08-03T04:06:13.019Z,20.24
2022-08-03T04:09:14.279Z,20.18
2022-08-03T04:11:46.909Z,20.12
2022-08-03T04:14:20.336Z,20.06
2022-08-03T04:16:52.867Z,19.99
2022-08-03T04:19:27.971Z,20.01
2022-08-03T04:22:01.995Z,19.99
2022-08-03T04:24:35.680Z,19.96
2022-08-03T04:27:08.011Z,19.94
2022-08-03T04:29:48.380Z,19.93
2022-08-03T04:32:19.057Z,19.90
2022-08-03T04:34:48.048Z,19.89
2022-08-03T04:37:26.376Z,19.89
2022-08-03T04:39:58.138Z,19.87
2022-08-03T04:42:27.394Z,19.87
2022-08-03T04:45:01.136Z,19.88
2022-08-03T04:47:33.185Z,19.88
2022-08-03T04:50:02.631Z,19.88
2022-08-03T04:52:33.050Z,19.89
2022-08-03T04:55:01.573Z,19.90
2022-08-03T04:57:30.034Z,19.91
2022-08-03T05:00:03.056Z,19.92
2022-08-03T05:02:32.748Z,19.96
2022-08-03T05:05:01.326Z,20.00
2022-08-03T05:07:35.473Z,20.03
2022-08-03T05:10:15.812Z,20.05
2022-08-03T05:12:46.640Z,20.03
2022-08-03T05:15:15.992Z,20.14
2022-08-03T05:17:44.655Z,20.18
2022-08-03T05:20:13.689Z,20.21
2022-08-03T05:22:47.325Z,20.27
2022-08-03T05:25:20.536Z,20.30
2022-08-03T05:27:49.632Z,20.34
2022-08-03T05:30:27.246Z,20.40
2022-08-03T05:33:03.090Z,20.44
2022-08-03T05:35:56.839Z,20.51
2022-08-03T05:38:23.929Z,20.59
2022-08-03T05:41:23.657Z,20.67
2022-08-03T05:43:47.561Z,20.77
2022-08-03T05:46:16.203Z,20.92
2022-08-03T05:48:44.681Z,21.03
2022-08-03T05:51:13.631Z,21.14
2022-08-03T05:53:42.581Z,21.28
2022-08-03T05:56:15.973Z,21.38
2022-08-03T05:58:48.449Z,21.48
2022-08-03T06:01:18.025Z,21.57
2022-08-03T06:03:46.956Z,21.67
2022-08-03T06:06:16.072Z,21.78
2022-08-03T06:08:45.336Z,21.87
2022-08-03T06:11:16.427Z,21.99
2022-08-03T06:13:45.574Z,22.07
2022-08-03T06:16:13.972Z,22.15
2022-08-03T06:18:42.392Z,22.23
2022-08-03T06:21:15.361Z,22.31
2022-08-03T06:23:53.905Z,22.38
2022-08-03T06:26:29.134Z,22.44
2022-08-03T06:28:57.631Z,22.48
2022-08-03T06:31:32.435Z,22.56
2022-08-03T06:34:33.672Z,22.66
2022-08-03T06:36:58.641Z,22.78
2022-08-03T06:39:30.046Z,22.85
2022-08-03T06:41:59.911Z,22.90
2022-08-03T06:44:28.370Z,22.96
2022-08-03T06:46:56.908Z,23.00
2022-08-03T06:49:25.434Z,23.07
2022-08-03T06:52:03.798Z,23.13
2022-08-03T06:54:36.817Z,23.21
2022-08-03T06:57:08.308Z,23.28
2022-08-03T07:00:07.597Z,23.41
2022-08-03T07:02:28.312Z,23.54
2022-08-03T07:04:58.283Z,23.66
2022-08-03T07:07:26.983Z,23.76
2022-08-03T07:09:57.873Z,23.90
2022-08-03T07:12:29.538Z,24.14
2022-08-03T07:15:02.238Z,24.22
2022-08-03T07:17:32.255Z,24.35
2022-08-03T07:20:01.548Z,24.48
2022-08-03T07:22:30.005Z,24.58
2022-08-03T07:24:59.174Z,24.69
2022-08-03T07:27:30.362Z,24.78
2022-08-03T07:30:00.268Z,24.77
2022-08-03T07:32:31.466Z,24.76
2022-08-03T07:35:01.461Z,24.78
2022-08-03T07:37:31.118Z,24.82
2022-08-03T07:39:59.878Z,24.86
2022-08-03T07:42:30.260Z,24.91
2022-08-03T07:44:59.447Z,24.96
2022-08-03T07:47:34.866Z,25.05
2022-08-03T07:50:05.531Z,25.15
2022-08-03T07:52:53.478Z,25.21
2022-08-03T07:55:28.068Z,25.30
2022-08-03T07:58:06.238Z,25.39
2022-08-03T08:00:35.006Z,25.46
2022-08-03T08:03:03.857Z,25.56
2022-08-03T08:05:32.785Z,25.67
2022-08-03T08:08:01.915Z,25.83
2022-08-03T08:10:31.177Z,25.91
2022-08-03T08:13:00.335Z,25.97
2022-08-03T08:15:30.316Z,26.01
2022-08-03T08:18:01.446Z,26.06
2022-08-03T08:20:33.142Z,26.12
2022-08-03T08:23:24.196Z,26.16
2022-08-03T08:25:55.054Z,26.24
2022-08-03T08:28:30.246Z,26.30
2022-08-03T08:31:02.169Z,26.34
2022-08-03T08:34:02.654Z,26.37
2022-08-03T08:36:19.639Z,26.46
2022-08-03T08:38:48.732Z,26.53
2022-08-03T08:41:18.105Z,26.56
2022-08-03T08:43:46.516Z,26.63
2022-08-03T08:46:23.924Z,26.65
2022-08-03T08:48:54.170Z,26.68
2022-08-03T08:51:23.628Z,26.72
2022-08-03T08:54:12.662Z,26.79
2022-08-03T08:56:41.507Z,26.79
2022-08-03T08:59:10.043Z,26.84
2022-08-03T09:01:40.201Z,26.95
2022-08-03T09:04:09.528Z,27.04
2022-08-03T09:06:38.071Z,27.18
2022-08-03T09:09:07.473Z,27.23
2022-08-03T09:11:53.198Z,27.30
2022-08-03T09:14:39.420Z,27.39
2022-08-03T09:17:17.354Z,27.46
2022-08-03T09:20:06.007Z,27.44
2022-08-03T09:22:34.542Z,27.46
2022-08-03T09:27:53.737Z,27.65
2022-08-03T09:30:33.620Z,27.64
2022-08-03T09:33:05.847Z,27.72
2022-08-03T09:38:26.360Z,27.87
2022-08-03T09:40:59.895Z,27.95
2022-08-03T09:43:29.299Z,27.99
2022-08-03T09:46:04.378Z,28.02
2022-08-03T09:48:35.502Z,28.02
2022-08-03T09:51:14.079Z,28.06
2022-08-03T09:54:01.762Z,28.08
2022-08-03T09:56:41.149Z,28.10
2022-08-03T09:59:10.098Z,28.12
2022-08-03T10:01:41.557Z,28.19
2022-08-03T10:04:17.170Z,28.24
2022-08-03T10:06:46.484Z,28.33
2022-08-03T10:09:16.877Z,28.43
2022-08-03T10:11:46.924Z,28.53
2022-08-03T10:14:19.517Z,28.55
2022-08-03T10:16:49.302Z,28.60
2022-08-03T10:19:19.464Z,28.68
2022-08-03T10:21:51.226Z,28.75
2022-08-03T10:24:27.538Z,28.88
2022-08-03T10:27:00.550Z,29.04
2022-08-03T10:29:30.322Z,29.30
2022-08-03T10:32:01.663Z,29.64
2022-08-03T10:34:44.258Z,30.14
2022-08-03T10:37:17.065Z,30.64
2022-08-03T10:39:54.378Z,31.00
2022-08-03T10:42:26.956Z,31.40
2022-08-03T10:45:05.604Z,31.77
2022-08-03T10:47:35.507Z,31.95
2022-08-03T10:50:06.418Z,32.11
2022-08-03T10:52:38.142Z,32.41
2022-08-03T10:55:47.831Z,32.68
2022-08-03T10:58:35.465Z,32.89
2022-08-03T11:01:05.056Z,33.04
2022-08-03T11:03:33.894Z,33.08
2022-08-03T11:06:19.112Z,33.15
2022-08-03T11:08:48.496Z,33.02
2022-08-03T11:11:28.539Z,33.38
2022-08-03T11:14:03.285Z,33.55
2022-08-03T11:16:35.104Z,33.58
2022-08-03T11:19:05.273Z,33.47
2022-08-03T11:22:00.454Z,33.73
2022-08-03T11:25:53.612Z,33.65
2022-08-03T11:28:29.352Z,33.57
2022-08-03T11:31:53.437Z,33.59
2022-08-03T11:34:21.984Z,33.73
2022-08-03T11:37:26.350Z,33.71
2022-08-03T11:39:57.159Z,33.85
2022-08-03T11:42:48.353Z,33.94
2022-08-03T11:45:19.792Z,34.03
2022-08-03T11:47:51.469Z,34.25
2022-08-03T11:50:21.511Z,34.23
2022-08-03T11:52:52.313Z,34.36
2022-08-03T11:55:22.268Z,34.62
2022-08-03T11:59:16.666Z,34.56
2022-08-03T12:00:40.613Z,34.44
2022-08-03T12:03:12.004Z,34.41
2022-08-03T12:05:51.243Z,34.33
2022-08-03T12:08:32.595Z,34.21
2022-08-03T12:11:03.070Z,34.41
2022-08-03T12:14:08.861Z,34.58
2022-08-03T12:16:28.857Z,34.62
2022-08-03T12:18:58.669Z,34.63
2022-08-03T12:21:27.754Z,34.24
2022-08-03T12:24:01.353Z,34.02
2022-08-03T12:26:30.767Z,34.13
2022-08-03T12:28:59.183Z,34.40
2022-08-03T12:31:27.646Z,34.65
2022-08-03T12:33:59.311Z,34.55
2022-08-03T12:36:28.986Z,34.45
2022-08-03T12:39:01.144Z,34.30
2022-08-03T12:41:31.987Z,34.52
2022-08-03T12:44:01.455Z,34.79
2022-08-03T12:46:35.188Z,34.75
2022-08-03T12:49:09.043Z,34.71
2022-08-03T12:51:39.069Z,34.61
2022-08-03T12:54:08.969Z,34.72
2022-08-03T12:57:00.885Z,34.93
2022-08-03T12:59:35.457Z,34.61
2022-08-03T13:02:17.688Z,34.51
2022-08-03T13:04:47.485Z,34.62
2022-08-03T13:07:18.400Z,34.51
2022-08-03T13:09:51.380Z,34.70
2022-08-03T13:12:22.308Z,34.73
2022-08-03T13:14:53.003Z,34.89
2022-08-03T13:17:21.807Z,35.09
2022-08-03T13:19:51.606Z,35.21
2022-08-03T13:22:22.157Z,35.30
2022-08-03T13:24:53.529Z,35.39
2022-08-03T13:28:04.706Z,35.28
2022-08-03T13:30:11.504Z,35.10
2022-08-03T13:32:40.127Z,35.04
2022-08-03T13:35:10.021Z,35.16
2022-08-03T13:37:39.305Z,35.39
2022-08-03T13:40:11.571Z,35.72
2022-08-03T13:42:40.384Z,35.84
2022-08-03T13:45:10.464Z,35.99
2022-08-03T13:47:38.883Z,36.00
2022-08-03T13:50:07.835Z,35.82
2022-08-03T13:52:37.207Z,35.85
2022-08-03T13:55:07.529Z,35.83
2022-08-03T13:58:11.869Z,36.00
2022-08-03T14:00:28.554Z,36.27
2022-08-03T14:03:07.984Z,36.23
2022-08-03T14:05:41.241Z,36.00
2022-08-03T14:08:10.112Z,35.79
2022-08-03T14:10:40.333Z,35.70
2022-08-03T14:13:11.829Z,35.72
2022-08-03T14:15:40.264Z,35.75
2022-08-03T14:18:12.878Z,35.60
2022-08-03T14:20:49.125Z,35.65
2022-08-03T14:23:20.144Z,35.69
2022-08-03T14:25:52.100Z,35.69
2022-08-03T14:28:25.806Z,35.56
2022-08-03T14:30:55.863Z,35.58
2022-08-03T14:33:24.475Z,35.68
2022-08-03T14:35:53.615Z,35.74
2022-08-03T14:38:22.864Z,35.67
2022-08-03T14:40:53.092Z,35.60
2022-08-03T14:43:21.584Z,35.45
2022-08-03T14:45:52.482Z,35.54
2022-08-03T14:50:33.382Z,35.59
2022-08-03T14:51:10.169Z,35.79
2022-08-03T14:53:38.678Z,35.72
2022-08-03T14:56:10.486Z,35.85
2022-08-03T14:58:39.536Z,35.78
2022-08-03T15:02:02.107Z,35.73
2022-08-03T15:03:58.124Z,35.83
2022-08-03T15:06:26.635Z,35.95
2022-08-03T15:09:21.311Z,36.02
2022-08-03T15:11:44.154Z,36.12
2022-08-03T15:14:13.485Z,36.13
2022-08-03T15:16:44.523Z,36.12
2022-08-03T15:20:01.078Z,35.88
2022-08-03T15:22:01.935Z,35.60
2022-08-03T15:24:30.433Z,35.75
2022-08-03T15:26:58.980Z,35.60
2022-08-03T15:30:09.039Z,35.67
2022-08-03T15:32:17.334Z,35.82
2022-08-03T15:34:50.256Z,35.84
2022-08-03T15:37:20.813Z,35.70
2022-08-03T15:39:58.830Z,35.52
2022-08-03T15:42:30.706Z,35.54
2022-08-03T15:44:59.408Z,35.36
2022-08-03T15:47:29.241Z,35.33
2022-08-03T15:49:57.820Z,35.23
2022-08-03T15:52:26.385Z,35.07
2022-08-03T15:54:54.949Z,34.86
2022-08-03T15:57:24.631Z,34.73
2022-08-03T15:59:53.133Z,34.78
2022-08-03T16:02:21.743Z,34.75
2022-08-03T16:04:52.219Z,34.71
2022-08-03T16:07:41.152Z,34.39
2022-08-03T16:10:30.612Z,34.15
2022-08-03T16:13:00.214Z,33.98
2022-08-03T16:15:28.856Z,33.83
2022-08-03T16:17:57.332Z,33.69
2022-08-03T16:20:29.279Z,33.67
2022-08-03T16:23:10.937Z,33.72
2022-08-03T16:25:40.901Z,33.69
2022-08-03T16:28:14.261Z,33.70
2022-08-03T16:30:45.472Z,33.68
2022-08-03T16:33:16.757Z,33.60
2022-08-03T16:35:49.572Z,33.58
2022-08-03T16:38:19.521Z,33.44
2022-08-03T16:40:52.075Z,33.33
2022-08-03T16:43:22.077Z,33.16
2022-08-03T16:45:50.802Z,33.02
2022-08-03T16:48:20.197Z,33.00
2022-08-03T16:50:50.093Z,33.00
2022-08-03T16:53:18.657Z,33.03
2022-08-03T16:56:02.984Z,33.07
2022-08-03T16:58:42.215Z,33.10
2022-08-03T17:01:22.626Z,33.16
2022-08-03T17:04:01.646Z,33.17
2022-08-03T17:06:36.539Z,33.17
2022-08-03T17:09:08.473Z,33.09
2022-08-03T17:11:46.389Z,33.01
2022-08-03T17:14:17.476Z,32.93
2022-08-03T17:16:53.829Z,32.91
2022-08-03T17:19:25.372Z,32.84
2022-08-03T17:22:01.357Z,32.77
2022-08-03T17:24:32.953Z,32.72
2022-08-03T17:27:04.140Z,32.56
2022-08-03T17:29:44.971Z,32.50
2022-08-03T17:32:18.387Z,32.38
2022-08-03T17:34:50.488Z,32.32
2022-08-03T17:37:50.763Z,32.23
2022-08-03T17:40:17.280Z,32.16
2022-08-03T17:42:50.698Z,32.04
2022-08-03T17:45:19.432Z,31.97
2022-08-03T17:47:57.107Z,31.89
2022-08-03T17:50:37.461Z,31.88
2022-08-03T17:53:24.268Z,31.82
2022-08-03T17:56:38.593Z,31.77
2022-08-03T17:59:08.693Z,31.72
2022-08-03T18:02:22.316Z,31.70
2022-08-03T18:05:16.088Z,31.65
2022-08-03T18:07:50.831Z,31.63
2022-08-03T18:10:34.755Z,31.65
2022-08-03T18:13:10.785Z,31.62
2022-08-03T18:15:47.230Z,31.55
2022-08-03T18:18:32.388Z,31.49
2022-08-03T18:21:04.766Z,31.45
2022-08-03T18:23:37.334Z,31.41
2022-08-03T18:26:10.796Z,31.31
2022-08-03T18:28:41.624Z,31.19
2022-08-03T18:31:59.834Z,31.11
2022-08-03T18:34:32.666Z,31.06
2022-08-03T18:36:55.829Z,30.95
2022-08-03T18:39:24.570Z,30.85
2022-08-03T18:41:55.160Z,30.78
2022-08-03T18:44:37.715Z,30.66
2022-08-03T18:47:50.407Z,30.54
2022-08-03T18:50:35.544Z,30.42
2022-08-03T18:53:16.337Z,30.32
2022-08-03T18:56:01.907Z,30.20
2022-08-03T18:58:38.909Z,30.03
2022-08-03T19:01:56.472Z,29.89
2022-08-03T19:04:10.294Z,29.75
2022-08-03T19:06:43.088Z,29.64
2022-08-03T19:09:20.177Z,29.51
2022-08-03T19:12:12.740Z,29.36
2022-08-03T19:14:51.920Z,29.22
2022-08-03T19:17:23.626Z,29.08
2022-08-03T19:19:59.417Z,28.93
2022-08-03T19:22:30.971Z,28.81
2022-08-03T19:25:02.366Z,28.71
2022-08-03T19:27:32.118Z,28.62
2022-08-03T19:32:53.755Z,28.41
2022-08-03T19:35:52.046Z,28.33
2022-08-03T19:38:11.891Z,28.24
2022-08-03T19:40:43.686Z,28.16
2022-08-03T19:43:23.349Z,28.06
2022-08-03T19:46:05.153Z,27.98
2022-08-03T19:48:37.084Z,27.89
2022-08-03T19:51:12.113Z,27.80
2022-08-03T19:53:44.919Z,27.71
2022-08-03T19:56:15.455Z,27.64
2022-08-03T19:58:45.857Z,27.56
2022-08-03T20:01:23.737Z,27.51
2022-08-03T20:03:57.344Z,27.44
2022-08-03T20:06:25.895Z,27.36
2022-08-03T20:08:54.769Z,27.29
2022-08-03T20:11:28.870Z,27.23
2022-08-03T20:13:59.273Z,27.17
2022-08-03T20:16:29.203Z,27.14
2022-08-03T20:18:57.985Z,27.10
2022-08-03T20:21:32.495Z,27.02
2022-08-03T20:24:24.461Z,26.96
2022-08-03T20:26:54.767Z,26.93
2022-08-03T20:30:05.132Z,26.87
2022-08-03T20:32:24.664Z,26.82
2022-08-03T20:34:53.649Z,26.76
2022-08-03T20:37:22.146Z,26.70
2022-08-03T20:39:50.763Z,26.64
2022-08-03T20:42:21.596Z,26.59
2022-08-03T20:45:04.567Z,26.56
2022-08-03T20:47:36.841Z,26.52
2022-08-03T20:50:22.101Z,26.45
2022-08-03T20:52:51.177Z,26.37
2022-08-03T20:55:47.101Z,26.29
2022-08-03T20:58:08.730Z,26.21
2022-08-03T21:00:37.529Z,26.17
2022-08-03T21:03:08.979Z,26.13
2022-08-03T21:05:51.281Z,26.06
2022-08-03T21:08:23.758Z,25.99
2022-08-03T21:10:54.317Z,25.97
2022-08-03T21:13:08.689Z,28.51
2022-08-03T21:13:28.938Z,25.90
2022-08-03T21:16:11.593Z,25.84
2022-08-03T21:18:50.061Z,25.80
2022-08-03T21:21:19.955Z,25.75
2022-08-03T21:23:52.709Z,25.72
2022-08-03T21:26:22.961Z,25.70
2022-08-03T21:28:53.810Z,25.66
2022-08-03T21:31:25.604Z,25.62
2022-08-03T21:33:57.534Z,25.57
2022-08-03T21:36:28.679Z,25.51
2022-08-03T21:38:58.276Z,25.50
2022-08-03T21:41:28.301Z,25.46
2022-08-03T21:43:56.762Z,25.42
2022-08-03T21:46:27.012Z,25.35
2022-08-03T21:50:04.884Z,25.32
2022-08-03T21:51:50.925Z,25.27
2022-08-03T21:54:21.854Z,25.23
2022-08-03T21:56:52.398Z,25.18
2022-08-03T21:59:22.769Z,25.14
2022-08-03T22:01:55.177Z,25.10
2022-08-03T22:04:50.949Z,25.08
2022-08-03T22:07:18.281Z,25.07
2022-08-03T22:09:51.157Z,25.03
2022-08-03T22:12:24.407Z,25.05
2022-08-03T22:15:00.763Z,25.01
2022-08-03T22:17:54.849Z,24.99
2022-08-03T22:20:22.765Z,24.99
2022-08-03T22:22:56.938Z,24.97
2022-08-03T22:25:29.909Z,24.94
2022-08-03T22:28:00.626Z,24.94
2022-08-03T22:30:29.307Z,24.91
2022-08-03T22:32:59.176Z,24.89
2022-08-03T22:35:29.483Z,24.85
2022-08-03T22:37:59.645Z,24.84
2022-08-03T22:40:28.759Z,24.79
2022-08-03T22:42:58.133Z,24.77
2022-08-03T22:46:07.218Z,24.74
2022-08-03T22:48:17.395Z,24.71
2022-08-03T22:50:48.072Z,24.67
2022-08-03T22:53:18.410Z,24.61
2022-08-03T22:55:47.159Z,24.57
2022-08-03T22:58:16.625Z,24.54
2022-08-03T23:00:53.834Z,24.52
2022-08-03T23:03:25.564Z,24.49
2022-08-03T23:06:19.306Z,24.46
2022-08-03T23:08:48.729Z,24.46
2022-08-03T23:11:19.565Z,24.43
2022-08-03T23:13:53.259Z,24.41
2022-08-03T23:16:29.392Z,24.40
2022-08-03T23:19:16.364Z,24.37
2022-08-03T23:21:59.844Z,24.32
2022-08-03T23:24:30.485Z,24.29
2022-08-03T23:26:59.421Z,24.25
2022-08-03T23:29:31.424Z,24.23
2022-08-03T23:32:02.253Z,24.21
2022-08-03T23:34:51.114Z,24.17
2022-08-03T23:37:21.418Z,24.15
2022-08-03T23:39:50.623Z,24.13
2022-08-03T23:42:21.369Z,24.07
2022-08-03T23:44:55.232Z,24.05
2022-08-03T23:47:24.133Z,24.04
2022-08-03T23:50:12.763Z,24.01
2022-08-03T23:52:53.847Z,23.99
2022-08-03T23:55:37.555Z,23.97
2022-08-03T23:58:14.484Z,23.94
